Time;durP1;ratioP1;P1;durP2;ratioP2;P2;SDS_P1;SDS_P2;PMS_P1;PMS_P2;Temp;Humidity;BMP_temperature;BMP_pressure;BME280_temperature;BME280_humidity;BME280_pressure;Samples;Min_cycle;Max_cycle;Signal;HPM_P1;HPM_P2
2023/12/30 12:18:20;;;;;;;10.07;2.28;;;8.10;99.90;;;;;;6210399;22;1341651;-84
2023/12/30 12:20:46;;;;;;;8.20;1.90;;;8.00;99.90;;;;;;6265521;22;20351;-84
2023/12/30 12:23:12;;;;;;;9.73;2.22;;;7.90;99.90;;;;;;6271393;22;20138;-83
2023/12/30 12:25:39;;;;;;;8.73;1.90;;;7.90;99.90;;;;;;6246511;22;20054;-84
2023/12/30 12:28:11;;;;;;;;;;;7.80;99.90;;;;;;6271250;22;20023;-83
2023/12/30 12:30:37;;;;;;;10.73;1.70;;;7.90;99.90;;;;;;6267378;22;19919;-82
2023/12/30 12:33:04;;;;;;;9.80;1.80;;;7.90;99.90;;;;;;6270943;22;20335;-82
2023/12/30 12:35:30;;;;;;;9.00;1.90;;;7.90;99.90;;;;;;6270360;22;20078;-82
2023/12/30 12:37:57;;;;;;;8.38;1.73;;;7.90;99.90;;;;;;6268812;22;20046;-81
2023/12/30 12:40:23;;;;;;;8.13;1.70;;;7.90;99.90;;;;;;6270655;22;20051;-83
2023/12/30 12:42:48;;;;;;;3.70;1.10;;;7.90;99.90;;;;;;6273924;22;20012;-82
2023/12/30 12:45:14;;;;;;;7.63;1.60;;;8.10;99.90;;;;;;6270959;22;20338;-82
2023/12/30 12:47:40;;;;;;;6.68;1.70;;;8.00;99.90;;;;;;6270363;22;20492;-83
2023/12/30 12:50:06;;;;;;;7.60;1.40;;;8.10;99.90;;;;;;6270553;22;20100;-82
2023/12/30 12:52:32;;;;;;;15.98;8.50;;;8.10;99.90;;;;;;6270542;22;20011;-82
2023/12/30 12:54:58;;;;;;;5.97;1.75;;;8.10;99.90;;;;;;6270315;22;20016;-82
2023/12/30 12:57:24;;;;;;;8.43;1.70;;;8.10;99.90;;;;;;6245103;22;20186;-82
2023/12/30 12:59:49;;;;;;;8.48;1.80;;;8.20;99.90;;;;;;6271980;22;20015;-82
2023/12/30 13:02:16;;;;;;;8.65;1.80;;;8.10;99.90;;;;;;6270964;22;20057;-83
2023/12/30 13:04:42;;;;;;;9.13;1.52;;;8.20;99.90;;;;;;6271150;22;20094;-82
2023/12/30 13:07:08;;;;;;;7.68;1.60;;;8.20;99.90;;;;;;6270236;22;20106;-82
2023/12/30 13:09:53;;;;;;;8.65;2.10;;;8.20;99.90;;;;;;6269956;22;20052;-82
2023/12/30 13:12:19;;;;;;;8.75;1.67;;;8.20;99.90;;;;;;6271533;22;20094;-82
2023/12/30 13:14:45;;;;;;;;;;;8.30;99.90;;;;;;6267062;22;20444;-86
2023/12/30 13:17:12;;;;;;;10.70;1.80;;;8.30;99.90;;;;;;6269092;22;19986;-85
2023/12/30 13:19:41;;;;;;;6.85;1.60;;;8.30;99.90;;;;;;6244592;22;20051;-85
2023/12/30 13:22:08;;;;;;;8.35;1.77;;;8.30;99.90;;;;;;6244045;22;20327;-86
2023/12/30 13:24:33;;;;;;;8.38;1.88;;;8.30;99.90;;;;;;6273728;22;20015;-85
2023/12/30 13:26:59;;;;;;;11.30;5.65;;;8.30;99.90;;;;;;6271416;22;20023;-86
2023/12/30 13:29:26;;;;;;;12.75;3.55;;;8.30;99.90;;;;;;6267901;22;20020;-85
2023/12/30 13:31:54;;;;;;;9.38;3.10;;;8.30;99.90;;;;;;6276203;22;20046;-85
2023/12/30 13:34:20;;;;;;;58.38;30.45;;;8.30;99.90;;;;;;6272255;22;20077;-85
2023/12/30 13:36:47;;;;;;;11.90;4.00;;;8.40;99.90;;;;;;6246504;22;20017;-86
2023/12/30 13:39:13;;;;;;;8.10;1.90;;;8.40;99.90;;;;;;6245747;22;20047;-86
2023/12/30 13:41:42;;;;;;;7.00;1.70;;;8.40;99.90;;;;;;6270637;22;20436;-86
2023/12/30 13:44:11;;;;;;;10.65;1.80;;;8.50;99.90;;;;;;6270587;22;20604;-87
2023/12/30 13:51:41;;;;;;;4.78;1.20;;;8.40;99.90;;;;;;6269815;22;20016;-85
2023/12/30 13:54:08;;;;;;;10.68;1.88;;;8.40;99.90;;;;;;6268528;22;20043;-86
2023/12/30 13:56:36;;;;;;;7.93;1.38;;;8.50;99.90;;;;;;6273225;22;20058;-86
2023/12/30 13:59:08;;;;;;;10.13;1.88;;;8.40;99.90;;;;;;6243770;22;20067;-86
2023/12/30 14:01:35;;;;;;;11.10;2.25;;;8.50;99.90;;;;;;6270391;22;20020;-86
2023/12/30 14:04:03;;;;;;;7.82;1.60;;;8.40;99.90;;;;;;6273065;22;20011;-86
2023/12/30 14:06:35;;;;;;;9.27;2.05;;;8.40;99.90;;;;;;6265097;22;20302;-85
2023/12/30 14:09:18;;;;;;;30.60;20.08;;;8.40;99.90;;;;;;6263368;22;20282;-86
2023/12/30 14:11:48;;;;;;;11.73;2.60;;;8.40;99.90;;;;;;6263243;22;20023;-89
2023/12/30 14:14:15;;;;;;;10.10;2.00;;;8.40;99.90;;;;;;6265695;22;20043;-86
2023/12/30 14:16:43;;;;;;;6.88;1.80;;;8.30;99.90;;;;;;6267519;22;20016;-85
2023/12/30 14:19:09;;;;;;;9.32;1.92;;;8.40;99.90;;;;;;6268373;22;20061;-86
2023/12/30 14:21:34;;;;;;;16.05;2.63;;;8.30;99.90;;;;;;6272831;22;20015;-85
2023/12/30 14:24:00;;;;;;;12.15;2.58;;;8.30;99.90;;;;;;6271742;22;20015;-86
2023/12/30 14:26:26;;;;;;;10.52;2.28;;;8.20;99.90;;;;;;6273508;22;20443;-86
2023/12/30 14:28:52;;;;;;;12.02;2.38;;;8.30;99.90;;;;;;6276174;22;20011;-86
2023/12/30 14:31:18;;;;;;;10.43;1.92;;;8.20;99.90;;;;;;6274287;22;20069;-87
2023/12/30 14:33:44;;;;;;;12.35;2.70;;;8.20;99.90;;;;;;6271201;22;20058;-87
2023/12/30 14:36:11;;;;;;;9.20;2.00;;;8.30;99.90;;;;;;6271578;22;20023;-88
2023/12/30 14:38:36;;;;;;;11.15;2.03;;;8.20;99.90;;;;;;6273608;22;20082;-89
2023/12/30 14:41:02;;;;;;;8.85;2.20;;;8.30;99.90;;;;;;6270247;22;20097;-87
2023/12/30 14:43:28;;;;;;;9.77;1.98;;;8.20;99.90;;;;;;6271927;22;20026;-86
2023/12/30 14:45:54;;;;;;;11.50;2.10;;;8.20;99.90;;;;;;6270995;22;20091;-87
2023/12/30 14:48:20;;;;;;;11.98;2.13;;;8.30;99.90;;;;;;6249028;22;20561;-88
2023/12/30 14:50:45;;;;;;;5.28;1.60;;;8.20;99.90;;;;;;6278470;22;20019;-86
2023/12/30 14:53:13;;;;;;;11.75;3.00;;;8.20;99.90;;;;;;6273011;22;20569;-86
2023/12/30 14:55:39;;;;;;;9.07;2.17;;;8.20;99.90;;;;;;6268231;22;20459;-87
2023/12/30 14:58:05;;;;;;;13.45;2.67;;;8.20;99.90;;;;;;6272550;22;20007;-86
2023/12/30 15:00:30;;;;;;;7.85;2.40;;;8.20;99.90;;;;;;6250989;22;20030;-85
2023/12/30 15:02:56;;;;;;;6.50;2.00;;;8.20;99.90;;;;;;6276443;22;20439;-85
2023/12/30 15:05:22;;;;;;;10.18;1.90;;;8.20;99.90;;;;;;6272310;22;20348;-85
2023/12/30 15:07:51;;;;;;;17.73;3.15;;;8.20;99.90;;;;;;6274841;22;20019;-86
2023/12/30 15:10:17;;;;;;;11.40;2.42;;;8.10;99.90;;;;;;6272729;22;20011;-85
2023/12/30 15:12:46;;;;;;;12.35;2.85;;;8.20;99.90;;;;;;6271660;22;20503;-86
2023/12/30 15:15:15;;;;;;;9.85;3.97;;;8.10;99.90;;;;;;6270908;22;20012;-85
2023/12/30 15:17:41;;;;;;;11.57;3.35;;;8.10;99.90;;;;;;6268299;22;20061;-85
2023/12/30 15:20:08;;;;;;;11.05;3.00;;;8.10;99.90;;;;;;6268092;22;20336;-85
2023/12/30 15:22:34;;;;;;;8.00;2.30;;;8.20;99.90;;;;;;6268136;22;20052;-86
2023/12/30 15:25:04;;;;;;;8.45;2.55;;;8.10;99.90;;;;;;6270479;22;20015;-87
2023/12/30 15:27:30;;;;;;;11.38;2.45;;;8.20;99.90;;;;;;6270000;22;20413;-85
2023/12/30 15:29:55;;;;;;;10.82;2.53;;;8.10;99.90;;;;;;6277045;22;20011;-85
2023/12/30 15:32:21;;;;;;;10.90;3.35;;;8.10;99.90;;;;;;6272306;22;20387;-86
2023/12/30 15:34:48;;;;;;;10.77;3.35;;;8.10;99.90;;;;;;6270875;22;20012;-86
2023/12/30 15:37:14;;;;;;;15.15;3.95;;;8.00;99.90;;;;;;6270547;22;20042;-86
2023/12/30 15:39:39;;;;;;;8.93;3.22;;;8.10;99.90;;;;;;6272736;22;20456;-87
2023/12/30 15:42:06;;;;;;;18.08;4.93;;;8.10;99.90;;;;;;6271339;22;20007;-85
2023/12/30 15:44:37;;;;;;;7.78;3.80;;;8.10;99.90;;;;;;6271011;22;20452;-85
2023/12/30 15:47:10;;;;;;;15.88;6.88;;;8.20;99.90;;;;;;6272464;22;20086;-84
2023/12/30 15:49:37;;;;;;;12.30;4.28;;;8.20;99.90;;;;;;6270368;22;20093;-86
2023/12/30 15:52:04;;;;;;;19.02;4.47;;;8.10;99.90;;;;;;6270109;22;20041;-84
2023/12/30 15:54:30;;;;;;;14.55;4.72;;;8.20;99.90;;;;;;6269798;22;20565;-87
2023/12/30 15:56:55;;;;;;;21.15;6.43;;;8.10;99.90;;;;;;6270810;22;20023;-86
2023/12/30 15:59:21;;;;;;;21.33;6.20;;;8.10;99.90;;;;;;6270798;22;20336;-86
2023/12/30 16:01:46;;;;;;;14.38;5.72;;;8.20;99.90;;;;;;6269650;22;20011;-85
2023/12/30 16:04:12;;;;;;;16.05;5.70;;;8.10;99.90;;;;;;6268820;22;20058;-84
2023/12/30 16:06:38;;;;;;;18.38;6.65;;;8.30;99.90;;;;;;6269105;22;20321;-85
2023/12/30 16:09:04;;;;;;;21.00;7.15;;;8.20;99.90;;;;;;6270188;22;20099;-86
2023/12/30 16:11:30;;;;;;;21.60;7.75;;;8.30;99.90;;;;;;6271337;22;20023;-85
2023/12/30 16:13:55;;;;;;;18.15;7.50;;;8.20;99.90;;;;;;6270433;22;20030;-85
2023/12/30 16:16:21;;;;;;;16.13;8.45;;;8.30;99.90;;;;;;6269537;22;20102;-85
2023/12/30 16:18:47;;;;;;;18.30;9.10;;;8.30;99.90;;;;;;6270221;22;20141;-86
2023/12/30 16:21:15;;;;;;;19.38;8.93;;;8.30;99.90;;;;;;6272249;22;20436;-86
2023/12/30 16:23:40;;;;;;;17.52;9.10;;;8.30;99.90;;;;;;6272710;22;20007;-86
2023/12/30 16:26:07;;;;;;;23.20;9.52;;;8.30;99.90;;;;;;6269908;22;20475;-87
2023/12/30 16:28:33;;;;;;;20.33;9.90;;;8.30;99.90;;;;;;6270692;22;20086;-85
2023/12/30 16:30:59;;;;;;;;;;;8.30;99.90;;;;;;6271816;22;20047;-86
2023/12/30 16:33:25;;;;;;;26.85;15.48;;;8.30;99.90;;;;;;6283210;22;19925;-87
2023/12/30 16:35:51;;;;;;;25.17;12.55;;;8.30;99.90;;;;;;6273514;22;20444;-86
2023/12/30 16:38:17;;;;;;;29.30;12.52;;;8.30;99.90;;;;;;6273191;22;20016;-85
2023/12/30 16:40:42;;;;;;;24.75;12.45;;;8.40;99.90;;;;;;6273808;22;20016;-86
2023/12/30 16:43:08;;;;;;;23.25;11.77;;;8.30;99.90;;;;;;6270294;22;20050;-85
2023/12/30 16:45:33;;;;;;;25.67;12.50;;;8.40;99.90;;;;;;6245982;22;20051;-85
2023/12/30 16:48:00;;;;;;;30.55;13.15;;;8.40;99.90;;;;;;6271498;22;20026;-87
2023/12/30 16:50:26;;;;;;;23.50;11.80;;;8.30;99.90;;;;;;6270601;22;20352;-85
2023/12/30 16:52:51;;;;;;;24.05;12.13;;;8.40;99.90;;;;;;6271578;22;20019;-86
2023/12/30 16:55:17;;;;;;;26.13;12.52;;;8.30;99.90;;;;;;6271479;22;20517;-86
2023/12/30 16:57:42;;;;;;;21.67;11.05;;;8.40;99.90;;;;;;6271302;22;20051;-86
2023/12/30 17:00:09;;;;;;;29.10;12.20;;;8.50;99.90;;;;;;6270141;22;20047;-86
2023/12/30 17:02:36;;;;;;;25.10;12.80;;;8.40;99.90;;;;;;6271261;22;20332;-86
2023/12/30 17:05:03;;;;;;;21.83;9.93;;;8.40;99.90;;;;;;6272931;22;20016;-86
2023/12/30 17:07:29;;;;;;;18.67;9.27;;;8.40;99.90;;;;;;6271907;22;20044;-86
2023/12/30 17:09:58;;;;;;;21.58;10.40;;;8.50;99.90;;;;;;6246772;22;20389;-87
2023/12/30 17:12:24;;;;;;;17.20;9.38;;;8.40;99.90;;;;;;6274737;22;20403;-85
2023/12/30 17:14:49;;;;;;;17.42;8.15;;;8.50;99.90;;;;;;6276092;22;20088;-86
2023/12/30 17:17:15;;;;;;;22.48;7.60;;;8.50;99.90;;;;;;6275602;22;20016;-86
2023/12/30 17:19:41;;;;;;;16.60;7.22;;;8.50;99.90;;;;;;6273373;22;20436;-85
2023/12/30 17:22:07;;;;;;;24.45;8.40;;;8.40;99.90;;;;;;6273754;22;20026;-86
2023/12/30 17:24:33;;;;;;;19.00;7.43;;;8.60;99.90;;;;;;6246010;22;20020;-86
2023/12/30 17:26:59;;;;;;;15.40;7.75;;;8.50;99.90;;;;;;6270254;22;20023;-86
2023/12/30 17:29:25;;;;;;;17.90;6.75;;;8.60;99.90;;;;;;6248834;22;20030;-85
2023/12/30 17:31:52;;;;;;;15.90;6.38;;;8.60;99.90;;;;;;6274683;22;20332;-85
2023/12/30 17:34:18;;;;;;;18.45;6.82;;;8.60;99.90;;;;;;6276132;22;20086;-85
2023/12/30 17:36:44;;;;;;;13.48;6.53;;;8.50;99.90;;;;;;6276408;22;20019;-85
2023/12/30 17:39:11;;;;;;;16.48;6.55;;;8.50;99.90;;;;;;6275262;22;20084;-86
2023/12/30 17:41:39;;;;;;;14.93;5.97;;;8.50;99.90;;;;;;6247633;22;20054;-85
2023/12/30 17:44:04;;;;;;;13.23;5.47;;;8.50;99.90;;;;;;6270895;22;20012;-86
2023/12/30 17:46:30;;;;;;;16.52;6.50;;;8.60;99.90;;;;;;6271063;22;20019;-86
2023/12/30 17:48:56;;;;;;;16.35;6.85;;;8.50;99.90;;;;;;6246041;22;20019;-85
2023/12/30 17:51:22;;;;;;;17.52;5.82;;;8.40;99.90;;;;;;6273454;22;20466;-86
2023/12/30 17:53:48;;;;;;;15.93;5.80;;;8.50;99.90;;;;;;6271455;22;20016;-86
2023/12/30 17:56:13;;;;;;;19.45;6.28;;;8.60;99.90;;;;;;6272040;22;20049;-86
2023/12/30 17:58:39;;;;;;;11.00;4.82;;;8.50;99.90;;;;;;6272174;22;20335;-86
2023/12/30 18:01:04;;;;;;;16.92;5.80;;;8.60;99.90;;;;;;6272990;22;20394;-85
2023/12/30 18:03:30;;;;;;;15.55;5.32;;;8.50;99.90;;;;;;6273853;22;20015;-85
2023/12/30 18:05:56;;;;;;;13.43;5.03;;;8.60;99.90;;;;;;6273322;22;20043;-85
2023/12/30 18:08:21;;;;;;;14.00;4.90;;;8.60;99.90;;;;;;6273145;22;20046;-85
2023/12/30 18:10:47;;;;;;;13.48;4.97;;;8.60;99.90;;;;;;6273194;22;20019;-85
2023/12/30 18:13:13;;;;;;;13.65;4.97;;;8.50;99.90;;;;;;6273560;22;20089;-86
2023/12/30 18:15:38;;;;;;;14.65;5.20;;;8.50;99.90;;;;;;6273019;22;20018;-86
2023/12/30 18:18:04;;;;;;;16.92;5.35;;;8.60;99.90;;;;;;6273490;22;20018;-86
2023/12/30 18:20:30;;;;;;;12.63;4.97;;;8.60;99.90;;;;;;6271054;22;20030;-85
2023/12/30 18:22:55;;;;;;;15.38;5.43;;;8.50;99.90;;;;;;6272315;22;20363;-85
2023/12/30 18:25:21;;;;;;;17.02;5.30;;;8.50;99.90;;;;;;6269024;22;20373;-86
2023/12/30 18:27:46;;;;;;;17.05;5.30;;;8.50;99.90;;;;;;6270317;22;20029;-87
2023/12/30 18:30:12;;;;;;;15.15;5.00;;;8.50;99.90;;;;;;6269978;22;20023;-86
2023/12/30 18:32:38;;;;;;;14.88;5.78;;;8.60;99.90;;;;;;6270554;22;20016;-86
2023/12/30 18:35:05;;;;;;;19.50;5.40;;;8.60;99.90;;;;;;6269637;22;20035;-86
2023/12/30 18:37:31;;;;;;;15.15;5.35;;;8.60;99.90;;;;;;6271111;22;20375;-85
2023/12/30 18:39:56;;;;;;;12.38;5.20;;;8.70;99.90;;;;;;6274603;22;20027;-86
2023/12/30 18:42:22;;;;;;;18.13;5.60;;;8.60;99.90;;;;;;6272631;22;20335;-86
2023/12/30 18:44:48;;;;;;;12.50;4.50;;;8.50;99.90;;;;;;6244920;22;20015;-87
2023/12/30 18:47:14;;;;;;;14.07;5.28;;;8.60;99.90;;;;;;6270678;22;20050;-87
2023/12/30 18:49:40;;;;;;;10.20;4.63;;;8.60;99.90;;;;;;6270327;22;20039;-86
2023/12/30 18:52:07;;;;;;;11.90;4.28;;;8.60;99.90;;;;;;6272179;22;20423;-87
2023/12/30 18:54:35;;;;;;;16.38;4.65;;;8.60;99.90;;;;;;6269062;22;20051;-86
2023/12/30 18:57:01;;;;;;;13.38;4.45;;;8.60;99.90;;;;;;6270742;22;20012;-86
2023/12/30 18:59:26;;;;;;;15.75;5.13;;;8.60;99.90;;;;;;6272795;22;20015;-86
2023/12/30 19:01:53;;;;;;;12.88;4.65;;;8.70;99.90;;;;;;6271806;22;20011;-86
2023/12/30 19:04:19;;;;;;;13.23;5.03;;;8.60;99.90;;;;;;6244201;22;20476;-86
2023/12/30 19:06:45;;;;;;;;;;;8.60;99.90;;;;;;6270306;22;20016;-86
2023/12/30 19:09:15;;;;;;;14.13;4.72;;;8.50;99.90;;;;;;6269937;22;19918;-86
2023/12/30 19:11:40;;;;;;;12.48;4.53;;;8.50;99.90;;;;;;6270190;22;20099;-86
2023/12/30 19:14:06;;;;;;;10.20;4.40;;;8.40;99.90;;;;;;6270208;22;20093;-86
2023/12/30 19:16:32;;;;;;;9.52;3.85;;;8.40;99.90;;;;;;6270474;22;20007;-86
2023/12/30 19:18:57;;;;;;;14.57;3.92;;;8.50;99.90;;;;;;6272676;22;20012;-86
2023/12/30 19:21:23;;;;;;;10.35;4.63;;;8.40;99.90;;;;;;6270110;22;20348;-84
2023/12/30 19:23:48;;;;;;;10.97;4.00;;;8.50;99.90;;;;;;6268964;22;20378;-85
2023/12/30 19:26:14;;;;;;;11.18;4.00;;;8.40;99.90;;;;;;6271648;22;20317;-85
2023/12/30 19:28:39;;;;;;;14.02;4.25;;;8.40;99.90;;;;;;6270535;22;20335;-85
2023/12/30 19:31:05;;;;;;;10.88;4.13;;;8.30;99.90;;;;;;6272692;22;20325;-86
2023/12/30 19:33:31;;;;;;;12.32;4.03;;;8.30;99.90;;;;;;6270373;22;20016;-85
2023/12/30 19:35:56;;;;;;;10.50;3.70;;;8.40;99.90;;;;;;6270511;22;20093;-85
2023/12/30 19:38:22;;;;;;;13.02;4.55;;;8.30;99.90;;;;;;6271851;22;20011;-85
2023/12/30 19:40:49;;;;;;;7.97;3.60;;;8.30;99.90;;;;;;6274027;22;20018;-85
2023/12/30 19:43:15;;;;;;;9.98;3.40;;;8.40;99.90;;;;;;6272069;22;20065;-86
2023/12/30 19:45:41;;;;;;;7.53;3.28;;;8.20;99.90;;;;;;6272181;22;20023;-86
2023/12/30 19:48:07;;;;;;;10.07;3.55;;;8.30;99.90;;;;;;6271002;22;20046;-86
2023/12/30 19:50:32;;;;;;;18.48;10.48;;;8.30;99.90;;;;;;6272210;22;20011;-86
2023/12/30 19:52:58;;;;;;;14.60;6.43;;;8.30;99.90;;;;;;6272147;22;20024;-85
2023/12/30 19:55:24;;;;;;;24.42;14.32;;;8.30;99.90;;;;;;6272656;22;20020;-85
2023/12/30 19:57:49;;;;;;;11.18;4.30;;;8.30;99.90;;;;;;6274711;22;20065;-86
2023/12/30 20:00:15;;;;;;;8.63;3.65;;;8.20;99.90;;;;;;6270996;22;20129;-86
2023/12/30 20:02:42;;;;;;;10.80;3.67;;;8.30;99.90;;;;;;6272584;22;20016;-86
2023/12/30 20:05:12;;;;;;;10.73;3.53;;;8.20;99.90;;;;;;6244248;22;20023;-86
2023/12/30 20:07:38;;;;;;;7.00;2.75;;;8.30;99.90;;;;;;6269758;22;20090;-85
2023/12/30 20:10:04;;;;;;;9.02;3.63;;;8.20;99.90;;;;;;6272172;22;20019;-86
2023/12/30 20:12:30;;;;;;;7.80;3.10;;;8.40;99.90;;;;;;6271495;22;20037;-85
2023/12/30 20:14:55;;;;;;;7.70;2.93;;;8.30;99.90;;;;;;6271250;22;20440;-87
2023/12/30 20:17:21;;;;;;;9.73;3.08;;;8.40;99.90;;;;;;6247022;22;20266;-85
2023/12/30 20:19:47;;;;;;;8.52;3.10;;;8.30;99.90;;;;;;6272111;22;20339;-85
2023/12/30 20:22:13;;;;;;;8.60;2.97;;;8.20;99.90;;;;;;6270800;22;20030;-78
2023/12/30 20:24:39;;;;;;;8.88;2.95;;;8.20;99.90;;;;;;6245560;22;20024;-84
2023/12/30 20:27:05;;;;;;;7.28;3.10;;;8.30;99.90;;;;;;6272076;22;20025;-84
2023/12/30 20:29:31;;;;;;;8.23;3.10;;;8.20;99.90;;;;;;6271742;22;20012;-84
2023/12/30 20:31:57;;;;;;;7.90;2.88;;;8.30;99.90;;;;;;6271689;22;20015;-85
2023/12/30 20:34:23;;;;;;;8.40;3.20;;;8.20;99.90;;;;;;6271506;22;20019;-85
2023/12/30 20:36:49;;;;;;;7.30;2.65;;;8.20;99.90;;;;;;6271909;22;20046;-89
2023/12/30 20:39:15;;;;;;;10.32;3.28;;;8.30;99.90;;;;;;6246011;22;20003;-86
2023/12/30 20:41:41;;;;;;;21.13;5.53;;;8.20;99.90;;;;;;6271245;22;20058;-86
2023/12/30 20:44:07;;;;;;;7.93;3.30;;;8.20;99.90;;;;;;6246871;22;20016;-85
2023/12/30 20:46:33;;;;;;;7.63;2.88;;;8.20;99.90;;;;;;6273216;22;20027;-86
2023/12/30 20:48:59;;;;;;;7.78;3.25;;;8.30;99.90;;;;;;6245937;22;20297;-84
2023/12/30 20:51:24;;;;;;;8.73;2.95;;;8.20;99.90;;;;;;6271062;22;20015;-86
2023/12/30 20:53:52;;;;;;;7.45;3.10;;;8.20;99.90;;;;;;6274088;22;20070;-85
2023/12/30 20:56:18;;;;;;;9.40;3.60;;;8.10;99.90;;;;;;6271183;22;20015;-84
2023/12/30 20:58:45;;;;;;;9.38;3.58;;;8.20;99.90;;;;;;6270941;22;20023;-85
2023/12/30 21:01:11;;;;;;;12.60;4.35;;;8.20;99.90;;;;;;6272654;22;20043;-84
2023/12/30 21:03:37;;;;;;;11.18;3.88;;;8.20;99.90;;;;;;6274315;22;20349;-84
2023/12/30 21:06:03;;;;;;;8.20;3.67;;;8.00;99.90;;;;;;6272765;22;20015;-84
2023/12/30 21:08:28;;;;;;;6.15;3.20;;;8.20;99.90;;;;;;6273925;22;20038;-84
2023/12/30 21:10:54;;;;;;;9.52;3.85;;;8.10;99.90;;;;;;6270706;22;20479;-84
2023/12/30 21:13:20;;;;;;;8.77;3.10;;;8.10;99.90;;;;;;6270963;22;20540;-84
2023/12/30 21:15:46;;;;;;;8.15;3.42;;;8.00;99.90;;;;;;6270064;22;20340;-84
2023/12/30 21:18:11;;;;;;;7.95;3.38;;;8.10;99.90;;;;;;6273116;22;20025;-84
2023/12/30 21:20:37;;;;;;;9.45;3.53;;;8.10;99.90;;;;;;6270248;22;20020;-84
2023/12/30 21:23:04;;;;;;;9.63;3.88;;;8.10;99.90;;;;;;6270968;22;20070;-83
2023/12/30 21:25:30;;;;;;;8.00;3.42;;;8.00;99.90;;;;;;6271386;22;20397;-83
2023/12/30 21:27:56;;;;;;;8.35;3.47;;;8.00;99.90;;;;;;6271041;22;20138;-83
2023/12/30 21:30:23;;;;;;;9.57;3.90;;;8.10;99.90;;;;;;6270116;22;20011;-84
2023/12/30 21:32:49;;;;;;;10.68;3.65;;;8.00;99.90;;;;;;6271128;22;20034;-83
2023/12/30 21:35:16;;;;;;;7.95;3.00;;;8.10;99.90;;;;;;6269877;22;20432;-83
2023/12/30 21:37:41;;;;;;;6.60;3.10;;;8.10;99.90;;;;;;6270296;22;20095;-84
2023/12/30 21:40:07;;;;;;;10.60;3.38;;;8.00;99.90;;;;;;6269420;22;20032;-84
2023/12/30 21:42:33;;;;;;;7.85;3.10;;;8.10;99.90;;;;;;6271176;22;20065;-83
2023/12/30 21:44:59;;;;;;;6.30;2.95;;;8.10;99.90;;;;;;6270745;22;20043;-84
2023/12/30 21:47:24;;;;;;;6.70;3.08;;;8.00;99.90;;;;;;6271817;22;20016;-84
2023/12/30 21:49:50;;;;;;;5.43;2.65;;;7.90;99.90;;;;;;6270975;22;20137;-83
2023/12/30 21:52:16;;;;;;;7.82;3.38;;;8.00;99.90;;;;;;6271100;22;20381;-83
2023/12/30 21:54:45;;;;;;;6.40;2.80;;;8.00;99.90;;;;;;6271618;22;20027;-83
2023/12/30 21:57:10;;;;;;;5.15;2.80;;;8.00;99.90;;;;;;6273379;22;20020;-84
2023/12/30 21:59:36;;;;;;;5.13;2.70;;;8.10;99.90;;;;;;6272112;22;20019;-84
2023/12/30 22:02:02;;;;;;;6.63;2.65;;;8.00;99.90;;;;;;6271432;22;20451;-84
2023/12/30 22:04:28;;;;;;;7.82;2.80;;;8.10;99.90;;;;;;6272820;22;20327;-83
2023/12/30 22:06:54;;;;;;;4.72;2.50;;;8.10;99.90;;;;;;6271805;22;20023;-85
2023/12/30 22:09:20;;;;;;;6.53;2.30;;;8.00;99.90;;;;;;6270761;22;20016;-84
2023/12/30 22:11:46;;;;;;;6.18;2.50;;;8.00;99.90;;;;;;6271333;22;20030;-85
2023/12/30 22:14:13;;;;;;;7.78;3.05;;;7.90;99.90;;;;;;6272841;22;20012;-85
2023/12/30 22:16:39;;;;;;;7.60;2.72;;;8.10;99.90;;;;;;6272681;22;20015;-82
2023/12/30 22:19:07;;;;;;;6.57;3.22;;;8.00;99.90;;;;;;6244489;22;20090;-84
2023/12/30 22:21:33;;;;;;;6.82;2.63;;;8.00;99.90;;;;;;6271394;22;20043;-84
2023/12/30 22:23:58;;;;;;;9.93;3.40;;;8.00;99.90;;;;;;6274143;22;20336;-85
2023/12/30 22:26:24;;;;;;;5.90;3.10;;;8.00;99.90;;;;;;6271456;22;20020;-85
2023/12/30 22:28:49;;;;;;;5.15;2.60;;;8.10;99.90;;;;;;6273475;22;20323;-86
2023/12/30 22:31:15;;;;;;;7.57;3.03;;;8.10;99.90;;;;;;6270914;22;20711;-85
2023/12/30 22:33:41;;;;;;;6.82;3.13;;;8.10;99.90;;;;;;6244897;22;20019;-85
2023/12/30 22:36:07;;;;;;;7.57;3.40;;;7.90;99.90;;;;;;6270770;22;20096;-82
2023/12/30 22:38:35;;;;;;;8.30;2.90;;;8.00;99.90;;;;;;6271367;22;20087;-84
2023/12/30 22:41:01;;;;;;;8.07;3.00;;;8.00;99.90;;;;;;6272162;22;20039;-85
2023/12/30 22:43:28;;;;;;;7.95;3.33;;;8.00;99.90;;;;;;6270485;22;20023;-84
2023/12/30 22:45:55;;;;;;;7.28;3.38;;;8.00;99.90;;;;;;6271782;22;20015;-85
2023/12/30 22:48:21;;;;;;;;;;;8.00;99.90;;;;;;6272478;22;20023;-85
2023/12/30 22:50:49;;;;;;;9.40;3.42;;;8.00;99.90;;;;;;6270665;22;19994;-85
2023/12/30 22:53:15;;;;;;;6.60;3.20;;;8.10;99.90;;;;;;6272269;22;20023;-85
2023/12/30 22:55:40;;;;;;;8.35;3.40;;;8.00;99.90;;;;;;6270629;22;20094;-85
2023/12/30 22:58:06;;;;;;;7.80;3.35;;;8.00;99.90;;;;;;6273190;22;20015;-85
2023/12/30 23:00:33;;;;;;;7.97;3.47;;;7.90;99.90;;;;;;6272919;22;20018;-83
2023/12/30 23:03:00;;;;;;;9.32;3.30;;;8.10;99.90;;;;;;6245145;22;20424;-83
2023/12/30 23:05:25;;;;;;;;;;;8.10;99.90;;;;;;6271503;22;20018;-84
2023/12/30 23:07:51;;;;;;;7.38;3.33;;;8.00;99.90;;;;;;6270956;22;19985;-84
2023/12/30 23:10:17;;;;;;;8.25;3.40;;;8.10;99.90;;;;;;6269725;22;20344;-84
2023/12/30 23:12:43;;;;;;;6.85;3.28;;;8.10;99.90;;;;;;6270437;22;20023;-83
2023/12/30 23:15:09;;;;;;;8.90;3.10;;;8.20;99.90;;;;;;6272312;22;20022;-84
2023/12/30 23:17:35;;;;;;;7.30;3.47;;;8.30;99.90;;;;;;6244241;22;20127;-85
2023/12/30 23:20:02;;;;;;;6.72;3.30;;;8.20;99.90;;;;;;6270153;22;20031;-85
2023/12/30 23:22:28;;;;;;;10.18;4.18;;;8.30;99.90;;;;;;6272072;22;20523;-83
2023/12/30 23:24:53;;;;;;;4.25;2.80;;;8.40;99.90;;;;;;6269672;22;20068;-83
2023/12/30 23:27:19;;;;;;;8.35;3.38;;;8.30;99.90;;;;;;6269577;22;20397;-84
2023/12/30 23:29:45;;;;;;;6.47;3.20;;;8.40;99.90;;;;;;6269888;22;20043;-83
2023/12/30 23:32:10;;;;;;;6.13;3.28;;;8.50;99.90;;;;;;6269547;22;20011;-84
2023/12/30 23:34:36;;;;;;;4.97;3.58;;;8.40;99.90;;;;;;6269947;22;20024;-84
2023/12/30 23:37:02;;;;;;;4.90;3.00;;;8.40;99.90;;;;;;6269834;22;20426;-83
2023/12/30 23:39:27;;;;;;;5.18;2.47;;;8.40;99.90;;;;;;6271398;22;20008;-84
2023/12/30 23:41:53;;;;;;;4.63;2.78;;;8.40;99.90;;;;;;6270124;22;20034;-85
2023/12/30 23:44:19;;;;;;;6.93;3.22;;;8.50;99.90;;;;;;6271091;22;20356;-84
2023/12/30 23:46:44;;;;;;;5.60;2.90;;;8.60;99.90;;;;;;6271245;22;20016;-85
2023/12/30 23:49:10;;;;;;;8.57;3.95;;;8.60;99.90;;;;;;6272223;22;20019;-85
2023/12/30 23:51:36;;;;;;;6.47;3.10;;;8.50;99.90;;;;;;6272219;22;20692;-85
2023/12/30 23:54:01;;;;;;;5.78;3.20;;;8.60;99.90;;;;;;6275398;22;20016;-84
2023/12/30 23:56:28;;;;;;;6.70;2.60;;;8.60;99.90;;;;;;6275822;22;20051;-84
2023/12/30 23:58:54;;;;;;;3.55;2.38;;;8.60;99.90;;;;;;6273631;22;20110;-84
